createdAt,value
2019-05-18T00:00:19.264Z,0.00
2019-05-18T00:01:19.251Z,0.00
2019-05-18T00:02:19.240Z,0.00
2019-05-18T00:03:19.231Z,0.00
2019-05-18T00:04:19.219Z,0.00
2019-05-18T00:05:20.060Z,0.00
2019-05-18T00:06:19.200Z,0.00
2019-05-18T00:07:19.475Z,0.00
2019-05-18T00:08:19.170Z,0.00
2019-05-18T00:09:19.160Z,0.00
2019-05-18T00:10:19.149Z,0.00
2019-05-18T00:11:19.192Z,0.00
2019-05-18T00:12:20.579Z,0.00
2019-05-18T00:13:19.119Z,0.00
2019-05-18T00:14:19.390Z,0.00
2019-05-18T00:15:19.109Z,0.00
2019-05-18T00:16:19.106Z,0.00
2019-05-18T00:17:25.203Z,0.00
2019-05-18T00:18:20.080Z,0.00
2019-05-18T00:19:19.060Z,0.00
2019-05-18T00:20:19.049Z,0.00
2019-05-18T00:21:19.834Z,0.00
2019-05-18T00:22:19.021Z,0.00
2019-05-18T00:23:19.048Z,0.00
2019-05-18T00:24:18.999Z,0.00
2019-05-18T00:25:18.989Z,0.00
2019-05-18T00:26:19.878Z,0.00
2019-05-18T00:27:19.248Z,0.00
2019-05-18T00:28:19.690Z,0.00
2019-05-18T00:29:18.999Z,0.00
2019-05-18T00:30:19.581Z,0.00
2019-05-18T00:31:18.934Z,0.00
2019-05-18T00:32:18.912Z,0.00
2019-05-18T00:33:19.066Z,0.00
2019-05-18T00:34:18.897Z,0.00
2019-05-18T00:35:18.918Z,0.00
2019-05-18T00:36:18.868Z,0.00
2019-05-18T00:37:19.687Z,0.00
2019-05-18T00:38:19.579Z,0.00
2019-05-18T00:39:19.120Z,0.00
2019-05-18T00:40:19.613Z,0.00
2019-05-18T00:41:18.889Z,0.00
2019-05-18T00:42:18.813Z,0.00
2019-05-18T00:43:18.867Z,0.00
2019-05-18T00:44:18.788Z,0.00
2019-05-18T00:45:18.775Z,0.00
2019-05-18T00:46:18.764Z,0.00
2019-05-18T00:47:18.787Z,0.00
2019-05-18T00:48:18.740Z,0.00
2019-05-18T00:49:18.734Z,0.00
2019-05-18T00:50:18.720Z,0.00
2019-05-18T00:51:18.987Z,0.00
2019-05-18T00:52:18.710Z,0.00
2019-05-18T00:53:19.435Z,0.00
2019-05-18T00:54:18.697Z,0.00
2019-05-18T00:55:18.666Z,0.00
2019-05-18T00:56:18.659Z,0.00
2019-05-18T00:57:18.925Z,0.00
2019-05-18T00:58:18.718Z,0.00
2019-05-18T00:59:18.736Z,0.00
2019-05-18T01:00:18.614Z,0.00
2019-05-18T01:01:18.621Z,0.00
2019-05-18T01:02:18.594Z,0.00
2019-05-18T01:03:18.874Z,0.00
2019-05-18T01:04:18.584Z,0.00
2019-05-18T01:05:18.595Z,0.00
2019-05-18T01:06:18.546Z,0.00
2019-05-18T01:07:18.536Z,0.00
2019-05-18T01:08:18.525Z,0.00
2019-05-18T01:09:18.528Z,0.00
2019-05-18T01:10:18.785Z,0.00
2019-05-18T01:11:18.545Z,0.00
2019-05-18T01:12:18.484Z,0.00
2019-05-18T01:13:18.474Z,0.00
2019-05-18T01:14:18.464Z,0.00
2019-05-18T01:15:18.445Z,0.00
2019-05-18T01:16:18.456Z,0.00
2019-05-18T01:17:18.874Z,0.00
2019-05-18T01:18:18.416Z,0.00
2019-05-18T01:19:18.405Z,0.00
2019-05-18T01:20:18.403Z,0.00
2019-05-18T01:21:18.384Z,0.00
2019-05-18T01:22:18.374Z,0.00
2019-05-18T01:23:18.414Z,0.00
2019-05-18T01:24:18.641Z,0.00
2019-05-18T01:25:18.342Z,0.00
2019-05-18T01:26:18.335Z,0.00
2019-05-18T01:27:18.322Z,0.00
2019-05-18T01:28:18.311Z,0.00
2019-05-18T01:29:18.375Z,0.00
2019-05-18T01:30:18.296Z,0.00
2019-05-18T01:31:18.273Z,0.00
2019-05-18T01:32:18.287Z,0.00
2019-05-18T01:33:18.253Z,0.00
2019-05-18T01:34:18.243Z,0.00
2019-05-18T01:35:18.272Z,0.00
2019-05-18T01:36:18.224Z,0.00
2019-05-18T01:37:19.098Z,0.00
2019-05-18T01:38:18.803Z,0.00
2019-05-18T01:39:18.203Z,0.00
2019-05-18T01:40:18.200Z,0.00
2019-05-18T01:41:18.210Z,0.00
2019-05-18T01:42:18.162Z,0.00
2019-05-18T01:43:18.197Z,0.00
2019-05-18T01:44:18.431Z,0.00
2019-05-18T01:45:18.692Z,0.00
2019-05-18T01:46:18.124Z,0.00
2019-05-18T01:47:19.623Z,0.00
2019-05-18T01:48:18.733Z,0.00
2019-05-18T01:49:18.732Z,0.00
2019-05-18T01:50:18.072Z,0.00
2019-05-18T01:51:18.920Z,0.00
2019-05-18T01:52:18.051Z,0.00
2019-05-18T01:53:18.091Z,0.00
2019-05-18T01:54:18.032Z,0.00
2019-05-18T01:55:18.025Z,0.00
2019-05-18T01:56:18.012Z,0.00
2019-05-18T01:57:18.002Z,0.00
2019-05-18T01:58:18.732Z,0.00
2019-05-18T01:59:18.731Z,0.00
2019-05-18T02:01:41.564Z,0.00
2019-05-18T02:02:40.880Z,0.00
2019-05-18T02:03:40.644Z,0.00
2019-05-18T02:04:40.635Z,0.00
2019-05-18T02:05:40.634Z,0.00
2019-05-18T02:06:40.616Z,0.00
2019-05-18T02:07:41.109Z,0.00
2019-05-18T02:08:40.585Z,0.00
2019-05-18T02:09:40.574Z,0.00
2019-05-18T02:10:40.563Z,0.00
2019-05-18T02:11:40.563Z,0.00
2019-05-18T02:12:40.543Z,0.00
2019-05-18T02:13:40.564Z,0.00
2019-05-18T02:14:40.523Z,0.00
2019-05-18T02:15:40.513Z,0.00
2019-05-18T02:16:40.522Z,0.00
2019-05-18T02:17:40.493Z,0.00
2019-05-18T02:18:40.493Z,0.00
2019-05-18T02:19:40.801Z,0.00
2019-05-18T02:20:40.533Z,0.00
2019-05-18T02:21:40.490Z,0.00
2019-05-18T02:22:40.454Z,0.00
2019-05-18T02:23:40.432Z,0.00
2019-05-18T02:24:40.422Z,0.00
2019-05-18T02:25:40.442Z,0.00
2019-05-18T02:26:40.399Z,0.00
2019-05-18T02:27:40.390Z,0.00
2019-05-18T02:28:40.371Z,0.00
2019-05-18T02:29:40.374Z,0.00
2019-05-18T02:30:40.365Z,0.00
2019-05-18T02:31:40.393Z,0.00
2019-05-18T02:32:40.332Z,0.00
2019-05-18T02:33:40.330Z,0.00
2019-05-18T02:34:40.328Z,0.00
2019-05-18T02:35:40.327Z,0.00
2019-05-18T02:36:40.291Z,0.00
2019-05-18T02:37:40.650Z,0.00
2019-05-18T02:38:40.273Z,0.00
2019-05-18T02:39:40.269Z,0.00
2019-05-18T02:40:40.253Z,0.00
2019-05-18T02:41:40.261Z,0.00
2019-05-18T02:42:41.099Z,0.00
2019-05-18T02:43:41.071Z,0.00
2019-05-18T02:44:41.381Z,0.00
2019-05-18T02:45:40.210Z,0.00
2019-05-18T02:46:40.182Z,0.00
2019-05-18T02:47:40.190Z,0.00
2019-05-18T02:48:49.380Z,0.00
2019-05-18T02:49:41.270Z,0.00
2019-05-18T02:50:40.153Z,0.00
2019-05-18T02:51:40.419Z,0.00
2019-05-18T02:52:40.150Z,0.00
2019-05-18T02:53:40.114Z,0.00
2019-05-18T02:54:40.099Z,0.00
2019-05-18T02:55:40.146Z,0.00
2019-05-18T02:56:40.085Z,0.00
2019-05-18T02:57:40.149Z,0.00
2019-05-18T02:58:40.339Z,0.00
2019-05-18T02:59:40.052Z,0.00
2019-05-18T03:00:40.039Z,0.00
2019-05-18T03:01:40.058Z,0.00
2019-05-18T03:02:40.023Z,0.00
2019-05-18T03:03:40.006Z,0.00
2019-05-18T03:04:39.989Z,0.00
2019-05-18T03:05:40.269Z,0.00
2019-05-18T03:06:39.979Z,0.00
2019-05-18T03:07:40.000Z,0.00
2019-05-18T03:08:39.947Z,0.00
2019-05-18T03:09:39.940Z,0.00
2019-05-18T03:10:39.936Z,0.00
2019-05-18T03:11:39.918Z,0.00
2019-05-18T03:12:40.196Z,0.00
2019-05-18T03:13:39.980Z,0.00
2019-05-18T03:14:39.896Z,0.00
2019-05-18T03:15:39.877Z,0.00
2019-05-18T03:16:39.867Z,0.00
2019-05-18T03:17:39.861Z,0.00
2019-05-18T03:18:39.848Z,0.00
2019-05-18T03:19:39.896Z,0.00
2019-05-18T03:20:39.827Z,0.00
2019-05-18T03:21:39.818Z,0.00
2019-05-18T03:22:39.834Z,0.00
2019-05-18T03:23:39.794Z,0.00
2019-05-18T03:24:40.656Z,0.00
2019-05-18T03:25:39.808Z,0.00
2019-05-18T03:26:39.769Z,0.00
2019-05-18T03:27:39.765Z,0.00
2019-05-18T03:28:39.802Z,0.00
2019-05-18T03:29:39.735Z,0.00
2019-05-18T03:30:39.733Z,0.00
2019-05-18T03:31:40.757Z,5.62
2019-05-18T03:32:39.703Z,5.62
2019-05-18T03:33:39.707Z,5.62
2019-05-18T03:34:39.685Z,5.62
2019-05-18T03:35:39.669Z,5.62
2019-05-18T03:36:39.945Z,5.62
2019-05-18T03:37:39.814Z,5.62
2019-05-18T03:38:39.654Z,5.62
2019-05-18T03:39:39.624Z,5.62
2019-05-18T03:40:39.624Z,5.62
2019-05-18T03:41:39.606Z,5.62
2019-05-18T03:42:39.593Z,5.62
2019-05-18T03:43:39.644Z,5.62
2019-05-18T03:44:39.574Z,11.25
2019-05-18T03:45:39.571Z,11.25
2019-05-18T03:46:40.413Z,11.25
2019-05-18T03:47:39.544Z,11.25
2019-05-18T03:48:39.811Z,11.25
2019-05-18T03:49:39.598Z,11.25
2019-05-18T03:50:39.510Z,11.25
2019-05-18T03:51:39.493Z,11.25
2019-05-18T03:52:39.494Z,11.25
2019-05-18T03:53:39.477Z,11.25
2019-05-18T03:54:39.487Z,11.25
2019-05-18T03:55:39.575Z,16.88
2019-05-18T03:56:39.467Z,16.88
2019-05-18T03:57:39.450Z,16.88
2019-05-18T03:58:39.423Z,16.88
2019-05-18T03:59:39.421Z,16.88
2019-05-18T04:00:39.689Z,16.88
2019-05-18T04:01:39.428Z,16.88
2019-05-18T04:02:39.382Z,16.88
2019-05-18T04:03:39.361Z,16.88
2019-05-18T04:04:39.362Z,16.88
2019-05-18T04:05:39.362Z,22.50
2019-05-18T04:06:39.332Z,22.50
2019-05-18T04:07:39.682Z,22.50
2019-05-18T04:08:39.318Z,22.50
2019-05-18T04:09:39.304Z,22.50
2019-05-18T04:10:39.295Z,22.50
2019-05-18T04:11:39.288Z,22.50
2019-05-18T04:12:39.273Z,22.50
2019-05-18T04:13:39.320Z,22.50
2019-05-18T04:14:39.540Z,28.12
2019-05-18T04:15:39.241Z,28.12
2019-05-18T04:16:39.235Z,28.12
2019-05-18T04:17:39.231Z,28.12
2019-05-18T04:18:39.223Z,28.12
2019-05-18T04:19:46.269Z,28.12
2019-05-18T04:20:40.189Z,28.12
2019-05-18T04:21:39.459Z,28.12
2019-05-18T04:22:39.169Z,28.12
2019-05-18T04:23:39.159Z,33.75
2019-05-18T04:24:39.156Z,33.75
2019-05-18T04:25:43.303Z,33.75
2019-05-18T04:26:39.221Z,33.75
2019-05-18T04:27:39.121Z,33.75
2019-05-18T04:28:39.392Z,33.75
2019-05-18T04:29:39.097Z,33.75
2019-05-18T04:30:39.078Z,33.75
2019-05-18T04:31:39.110Z,33.75
2019-05-18T04:32:39.087Z,39.38
2019-05-18T04:33:39.048Z,39.38
2019-05-18T04:34:39.038Z,39.38
2019-05-18T04:35:39.310Z,39.38
2019-05-18T04:36:39.019Z,39.38
2019-05-18T04:37:39.055Z,39.38
2019-05-18T04:38:39.011Z,39.38
2019-05-18T04:39:38.988Z,39.38
2019-05-18T04:40:38.975Z,45.00
2019-05-18T04:41:38.964Z,45.00
2019-05-18T04:42:39.277Z,45.00
2019-05-18T04:43:39.015Z,45.00
2019-05-18T04:44:39.512Z,45.00
2019-05-18T04:45:38.931Z,45.00
2019-05-18T04:46:38.909Z,45.00
2019-05-18T04:47:38.904Z,45.00
2019-05-18T04:48:38.902Z,50.62
2019-05-18T04:49:39.418Z,50.62
2019-05-18T04:50:38.871Z,50.62
2019-05-18T04:51:39.521Z,50.62
2019-05-18T04:52:38.862Z,50.62
2019-05-18T04:53:38.875Z,56.25
2019-05-18T04:54:38.836Z,56.25
2019-05-18T04:55:38.856Z,56.25
2019-05-18T04:56:42.695Z,56.25
2019-05-18T04:57:38.795Z,56.25
2019-05-18T04:58:38.787Z,61.88
2019-05-18T04:59:38.781Z,61.88
2019-05-18T05:00:38.766Z,61.88
2019-05-18T05:01:38.808Z,61.88
2019-05-18T05:02:38.748Z,61.88
2019-05-18T05:03:38.736Z,67.50
2019-05-18T05:04:38.725Z,67.50
2019-05-18T05:05:38.717Z,67.50
2019-05-18T05:06:38.695Z,67.50
2019-05-18T05:07:39.008Z,67.50
2019-05-18T05:08:38.680Z,67.50
2019-05-18T05:09:38.667Z,67.50
2019-05-18T05:10:38.654Z,73.12
2019-05-18T05:11:38.651Z,73.12
2019-05-18T05:12:38.641Z,73.12
2019-05-18T05:13:38.674Z,73.12
2019-05-18T05:14:38.614Z,73.12
2019-05-18T05:15:38.614Z,73.12
2019-05-18T05:16:38.594Z,73.12
2019-05-18T05:17:38.584Z,78.75
2019-05-18T05:18:38.574Z,78.75
2019-05-18T05:19:38.682Z,78.75
2019-05-18T05:20:38.553Z,78.75
2019-05-18T05:21:38.541Z,78.75
2019-05-18T05:22:38.535Z,78.75
2019-05-18T05:23:38.527Z,84.38
2019-05-18T05:24:38.513Z,84.38
2019-05-18T05:25:38.839Z,84.38
2019-05-18T05:26:39.816Z,84.38
2019-05-18T05:27:38.479Z,84.38
2019-05-18T05:28:38.472Z,90.00
2019-05-18T05:29:38.453Z,90.00
2019-05-18T05:30:38.444Z,90.00
2019-05-18T05:31:38.494Z,90.00
2019-05-18T05:32:39.156Z,90.00
2019-05-18T05:33:38.413Z,95.62
2019-05-18T05:34:40.113Z,95.62
2019-05-18T05:35:39.144Z,95.62
2019-05-18T05:36:39.440Z,90.00
2019-05-18T05:37:39.843Z,95.62
2019-05-18T05:38:38.943Z,95.62
2019-05-18T05:39:38.352Z,95.62
2019-05-18T05:40:38.342Z,95.62
2019-05-18T05:41:38.322Z,95.62
2019-05-18T05:42:38.322Z,95.62
2019-05-18T05:43:38.643Z,95.62
2019-05-18T05:44:38.291Z,95.62
2019-05-18T05:45:38.282Z,95.62
2019-05-18T05:46:38.271Z,101.25
2019-05-18T05:47:38.263Z,101.25
2019-05-18T05:48:38.251Z,101.25
2019-05-18T05:49:38.291Z,101.25
2019-05-18T05:50:38.573Z,106.88
2019-05-18T05:51:38.905Z,106.88
2019-05-18T05:52:38.221Z,106.88
2019-05-18T05:53:40.061Z,106.88
2019-05-18T05:54:38.191Z,106.88
2019-05-18T05:55:38.232Z,112.50
2019-05-18T05:56:38.161Z,112.50
2019-05-18T05:57:38.152Z,112.50
2019-05-18T05:58:41.541Z,112.50
2019-05-18T05:59:38.131Z,112.50
2019-05-18T06:00:38.122Z,106.88
2019-05-18T06:01:38.140Z,112.50
2019-05-18T06:02:38.105Z,112.50
2019-05-18T06:03:38.370Z,112.50
2019-05-18T06:04:38.100Z,112.50
2019-05-18T06:05:38.070Z,112.50
2019-05-18T06:06:38.057Z,112.50
2019-05-18T06:07:38.079Z,112.50
2019-05-18T06:08:38.030Z,112.50
2019-05-18T06:09:38.059Z,118.12
2019-05-18T06:10:38.371Z,118.12
2019-05-18T06:11:38.699Z,118.12
2019-05-18T06:12:38.712Z,118.12
2019-05-18T06:13:38.481Z,118.12
2019-05-18T06:14:38.701Z,118.12
2019-05-18T06:15:37.960Z,118.12
2019-05-18T06:16:38.592Z,118.12
2019-05-18T06:17:37.956Z,123.75
2019-05-18T06:18:37.928Z,118.12
2019-05-18T06:19:37.977Z,123.75
2019-05-18T06:20:50.439Z,123.75
2019-05-18T06:21:38.909Z,123.75
2019-05-18T06:22:37.888Z,123.75
2019-05-18T06:23:37.876Z,129.38
2019-05-18T06:24:37.865Z,129.38
2019-05-18T06:25:37.906Z,123.75
2019-05-18T06:26:37.843Z,123.75
2019-05-18T06:27:37.828Z,123.75
2019-05-18T06:28:37.838Z,123.75
2019-05-18T06:29:37.817Z,123.75
2019-05-18T06:30:37.798Z,123.75
2019-05-18T06:31:37.845Z,129.38
2019-05-18T06:32:37.785Z,129.38
2019-05-18T06:33:37.775Z,129.38
2019-05-18T06:34:37.759Z,129.38
2019-05-18T06:35:38.027Z,129.38
2019-05-18T06:36:37.747Z,129.38
2019-05-18T06:37:37.758Z,129.38
2019-05-18T06:38:37.733Z,129.38
2019-05-18T06:39:37.718Z,135.00
2019-05-18T06:40:37.806Z,135.00
2019-05-18T06:41:37.745Z,135.00
2019-05-18T06:42:37.676Z,135.00
2019-05-18T06:43:37.707Z,135.00
2019-05-18T06:44:37.656Z,135.00
2019-05-18T06:45:37.647Z,135.00
2019-05-18T06:46:37.635Z,140.62
2019-05-18T06:47:37.985Z,140.62
2019-05-18T06:48:37.617Z,140.62
2019-05-18T06:49:38.433Z,140.62
2019-05-18T06:50:37.600Z,140.62
2019-05-18T06:51:37.593Z,140.62
2019-05-18T06:52:37.578Z,140.62
2019-05-18T06:53:37.568Z,140.62
2019-05-18T06:54:37.547Z,140.62
2019-05-18T06:55:37.591Z,140.62
2019-05-18T06:56:37.533Z,140.62
2019-05-18T06:57:37.516Z,140.62
2019-05-18T06:58:37.536Z,140.62
2019-05-18T06:59:37.856Z,146.25
2019-05-18T07:00:37.485Z,146.25
2019-05-18T07:01:37.516Z,151.88
2019-05-18T07:02:37.470Z,157.50
2019-05-18T07:03:37.474Z,163.12
2019-05-18T07:04:37.474Z,174.38
2019-05-18T07:05:37.453Z,180.00
2019-05-18T07:06:37.426Z,185.62
2019-05-18T07:07:37.468Z,191.25
2019-05-18T07:08:37.405Z,185.62
2019-05-18T07:09:37.399Z,185.62
2019-05-18T07:10:37.376Z,185.62
2019-05-18T07:11:37.746Z,174.38
2019-05-18T07:12:37.388Z,174.38
2019-05-18T07:13:37.417Z,151.88
2019-05-18T07:14:37.354Z,180.00
2019-05-18T07:15:37.377Z,180.00
2019-05-18T07:16:38.310Z,185.62
2019-05-18T07:17:37.393Z,196.88
2019-05-18T07:18:37.524Z,213.75
2019-05-18T07:19:37.325Z,219.38
2019-05-18T07:20:37.455Z,230.62
2019-05-18T07:21:37.454Z,236.25
2019-05-18T07:22:38.148Z,236.25
2019-05-18T07:23:39.558Z,236.25
2019-05-18T07:24:38.413Z,241.88
2019-05-18T07:25:37.605Z,241.88
2019-05-18T07:26:37.621Z,241.88
2019-05-18T07:27:38.127Z,247.50
2019-05-18T07:28:42.650Z,247.50
2019-05-18T07:29:37.937Z,247.50
2019-05-18T07:30:37.405Z,253.12
2019-05-18T07:31:37.550Z,253.12
2019-05-18T07:32:38.816Z,253.12
2019-05-18T07:33:37.384Z,258.75
2019-05-18T07:34:37.154Z,258.75
2019-05-18T07:35:37.222Z,258.75
2019-05-18T07:36:38.807Z,264.38
2019-05-18T07:37:39.245Z,264.38
2019-05-18T07:38:37.803Z,264.38
2019-05-18T07:39:37.084Z,270.00
2019-05-18T07:40:37.054Z,270.00
2019-05-18T07:41:46.185Z,270.00
2019-05-18T07:42:38.084Z,275.62
2019-05-18T07:43:37.795Z,275.62
2019-05-18T07:44:37.134Z,258.75
2019-05-18T07:45:37.004Z,275.62
2019-05-18T07:46:37.274Z,275.62
2019-05-18T07:47:37.344Z,275.62
2019-05-18T07:48:37.851Z,281.25
2019-05-18T07:49:37.694Z,281.25
2019-05-18T07:50:37.213Z,286.88
2019-05-18T07:51:37.556Z,286.88
2019-05-18T07:52:37.184Z,275.62
2019-05-18T07:53:37.878Z,281.25
2019-05-18T07:54:37.114Z,275.62
2019-05-18T07:55:38.753Z,286.88
2019-05-18T07:56:36.924Z,286.88
2019-05-18T07:57:36.877Z,292.50
2019-05-18T07:58:36.864Z,292.50
2019-05-18T07:59:37.779Z,292.50
2019-05-18T08:00:37.498Z,292.50
2019-05-18T08:01:36.848Z,298.12
2019-05-18T08:02:37.514Z,303.75
2019-05-18T08:03:38.148Z,303.75
2019-05-18T08:04:39.714Z,320.62
2019-05-18T08:05:36.795Z,326.25
2019-05-18T08:06:36.824Z,326.25
2019-05-18T08:07:36.872Z,331.88
2019-05-18T08:08:36.792Z,331.88
2019-05-18T08:09:36.743Z,326.25
2019-05-18T08:10:36.753Z,326.25
2019-05-18T08:11:36.732Z,326.25
2019-05-18T08:12:37.279Z,326.25
2019-05-18T08:13:36.765Z,331.88
2019-05-18T08:14:37.570Z,326.25
2019-05-18T08:15:37.603Z,326.25
2019-05-18T08:16:40.045Z,326.25
2019-05-18T08:17:38.323Z,326.25
2019-05-18T08:18:37.814Z,331.88
2019-05-18T08:19:36.635Z,331.88
2019-05-18T08:20:37.045Z,331.88
2019-05-18T08:21:50.843Z,331.88
2019-05-18T08:22:38.408Z,343.12
2019-05-18T08:23:38.564Z,354.38
2019-05-18T08:24:39.355Z,331.88
2019-05-18T08:25:37.173Z,320.62
2019-05-18T08:26:36.993Z,331.88
2019-05-18T08:27:38.615Z,331.88
2019-05-18T08:28:37.916Z,303.75
2019-05-18T08:29:37.803Z,303.75
2019-05-18T08:30:38.284Z,326.25
2019-05-18T08:31:38.515Z,331.88
2019-05-18T08:32:40.036Z,337.50
2019-05-18T08:33:38.976Z,360.00
2019-05-18T08:34:37.437Z,337.50
2019-05-18T08:35:36.657Z,326.25
2019-05-18T08:36:37.504Z,331.88
2019-05-18T08:37:37.868Z,343.12
2019-05-18T08:38:36.655Z,354.38
2019-05-18T08:39:37.115Z,360.00
2019-05-18T08:40:37.606Z,354.38
2019-05-18T08:41:38.571Z,337.50
2019-05-18T08:42:38.297Z,309.38
2019-05-18T08:43:37.109Z,275.62
2019-05-18T08:44:40.612Z,320.62
2019-05-18T08:45:37.177Z,315.00
2019-05-18T08:46:39.080Z,337.50
2019-05-18T08:47:37.469Z,365.62
2019-05-18T08:48:37.636Z,354.38
2019-05-18T08:49:39.724Z,326.25
2019-05-18T08:50:37.406Z,360.00
2019-05-18T08:51:36.619Z,365.62
2019-05-18T08:52:40.034Z,360.00
2019-05-18T08:54:18.275Z,360.00
2019-05-18T08:54:49.296Z,365.62
2019-05-18T08:55:42.710Z,360.00
2019-05-18T08:56:38.906Z,365.62
2019-05-18T08:57:38.070Z,365.62
2019-05-18T08:58:39.068Z,376.88
2019-05-18T08:59:39.994Z,376.88
2019-05-18T09:00:37.827Z,371.25
2019-05-18T09:01:40.475Z,376.88
2019-05-18T09:02:37.804Z,382.50
2019-05-18T09:03:39.327Z,382.50
2019-05-18T09:04:36.927Z,388.12
2019-05-18T09:05:37.516Z,388.12
2019-05-18T09:06:37.059Z,382.50
2019-05-18T09:07:36.866Z,388.12
2019-05-18T09:08:37.149Z,393.75
2019-05-18T09:09:36.658Z,393.75
2019-05-18T09:10:38.352Z,393.75
2019-05-18T09:11:39.500Z,399.38
2019-05-18T09:12:38.636Z,393.75
2019-05-18T09:13:38.167Z,365.62
2019-05-18T09:14:38.207Z,343.12
2019-05-18T09:15:36.686Z,309.38
2019-05-18T09:16:37.787Z,331.88
2019-05-18T09:17:38.188Z,331.88
2019-05-18T09:18:36.918Z,371.25
2019-05-18T09:19:36.559Z,348.75
2019-05-18T09:20:38.903Z,326.25
2019-05-18T09:21:36.938Z,303.75
2019-05-18T09:22:39.362Z,309.38
2019-05-18T09:23:39.990Z,348.75
2019-05-18T09:24:36.915Z,416.25
2019-05-18T09:25:37.457Z,421.88
2019-05-18T09:26:37.830Z,421.88
2019-05-18T09:27:37.646Z,416.25
2019-05-18T09:28:39.177Z,416.25
2019-05-18T09:29:38.688Z,365.62
2019-05-18T09:30:36.587Z,337.50
2019-05-18T09:31:36.750Z,320.62
2019-05-18T09:32:37.924Z,399.38
2019-05-18T09:33:36.332Z,410.62
2019-05-18T09:34:36.737Z,416.25
2019-05-18T09:35:36.339Z,427.50
2019-05-18T09:36:37.880Z,427.50
2019-05-18T09:37:36.599Z,421.88
2019-05-18T09:38:35.796Z,427.50
2019-05-18T09:39:35.809Z,427.50
2019-05-18T09:40:37.348Z,433.12
2019-05-18T09:41:36.886Z,427.50
2019-05-18T09:42:37.694Z,433.12
2019-05-18T09:43:37.876Z,438.75
2019-05-18T09:44:38.798Z,444.38
2019-05-18T09:45:37.410Z,444.38
2019-05-18T09:46:36.118Z,444.38
2019-05-18T09:47:38.790Z,450.00
2019-05-18T09:48:41.853Z,444.38
2019-05-18T09:49:37.543Z,450.00
2019-05-18T09:50:40.551Z,450.00
2019-05-18T09:51:38.553Z,450.00
2019-05-18T09:52:44.723Z,455.62
2019-05-18T09:53:49.472Z,455.62
2019-05-18T09:54:38.551Z,444.38
2019-05-18T09:55:37.783Z,410.62
2019-05-18T09:56:37.838Z,371.25
2019-05-18T09:57:38.833Z,416.25
2019-05-18T09:58:36.003Z,433.12
2019-05-18T09:59:38.529Z,410.62
2019-05-18T10:00:39.128Z,427.50
2019-05-18T10:01:36.461Z,427.50
2019-05-18T10:02:37.050Z,455.62
2019-05-18T10:03:35.822Z,438.75
2019-05-18T10:04:36.501Z,472.50
2019-05-18T10:05:39.769Z,466.88
2019-05-18T10:06:38.650Z,472.50
2019-05-18T10:07:39.632Z,466.88
2019-05-18T10:08:51.504Z,427.50
2019-05-18T10:11:53.784Z,450.00
2019-05-18T10:12:53.193Z,450.00
2019-05-18T10:13:53.242Z,450.00
2019-05-18T10:14:52.903Z,466.88
2019-05-18T10:15:56.810Z,472.50
2019-05-18T10:16:52.567Z,461.25
2019-05-18T10:17:52.647Z,438.75
2019-05-18T10:18:52.785Z,466.88
2019-05-18T10:19:55.848Z,472.50
2019-05-18T10:20:55.787Z,478.12
2019-05-18T10:21:56.549Z,478.12
2019-05-18T10:24:31.370Z,478.12
2019-05-18T10:25:30.641Z,489.38
2019-05-18T10:26:33.164Z,489.38
2019-05-18T10:27:32.448Z,495.00
2019-05-18T10:28:30.531Z,495.00
2019-05-18T10:29:34.801Z,500.62
2019-05-18T10:30:31.041Z,500.62
2019-05-18T10:31:31.551Z,500.62
2019-05-18T10:32:31.003Z,506.25
2019-05-18T10:33:31.031Z,511.88
2019-05-18T10:34:34.123Z,511.88
2019-05-18T10:35:31.028Z,511.88
2019-05-18T10:36:30.871Z,523.12
2019-05-18T10:37:31.911Z,528.75
2019-05-18T10:38:35.943Z,528.75
2019-05-18T10:39:30.631Z,528.75
2019-05-18T10:40:30.651Z,534.38
2019-05-18T10:41:30.262Z,540.00
2019-05-18T10:42:32.231Z,534.38
2019-05-18T10:43:32.630Z,540.00
2019-05-18T10:44:35.010Z,545.62
2019-05-18T10:45:32.450Z,573.75
2019-05-18T10:46:33.610Z,618.75
2019-05-18T10:47:31.026Z,697.50
2019-05-18T10:48:31.782Z,781.88
2019-05-18T10:49:31.221Z,843.75
2019-05-18T10:50:34.737Z,950.62
2019-05-18T10:51:33.764Z,1068.75
2019-05-18T10:52:30.870Z,1153.12
2019-05-18T10:53:30.508Z,1248.75
2019-05-18T10:54:30.666Z,1316.25
2019-05-18T10:55:30.991Z,1423.12
2019-05-18T10:56:31.314Z,1462.50
2019-05-18T10:57:31.838Z,1440.00
2019-05-18T10:58:30.807Z,1428.75
2019-05-18T10:59:32.307Z,1501.88
2019-05-18T11:00:31.139Z,1558.12
2019-05-18T11:01:31.528Z,1558.12
2019-05-18T11:02:30.929Z,1569.38
2019-05-18T11:03:32.913Z,1575.00
2019-05-18T11:04:30.397Z,1580.62
2019-05-18T11:05:30.972Z,1552.50
2019-05-18T11:06:31.435Z,1591.88
2019-05-18T11:07:30.148Z,1631.25
2019-05-18T11:08:30.454Z,1603.12
2019-05-18T11:09:34.089Z,1614.38
2019-05-18T11:10:30.181Z,1631.25
2019-05-18T11:11:31.029Z,1631.25
2019-05-18T11:12:32.972Z,1648.12
2019-05-18T11:13:31.563Z,1625.62
2019-05-18T11:14:30.236Z,1558.12
2019-05-18T11:15:31.067Z,1558.12
2019-05-18T11:16:32.146Z,1535.62
2019-05-18T11:17:32.588Z,1558.12
2019-05-18T11:18:32.227Z,1620.00
2019-05-18T11:19:31.436Z,1558.12
2019-05-18T11:20:30.668Z,1237.50
2019-05-18T11:21:30.848Z,360.00
2019-05-18T11:22:31.467Z,967.50
2019-05-18T11:23:42.881Z,1653.75
2019-05-18T11:24:31.007Z,1659.38
2019-05-18T11:25:30.237Z,1608.75
2019-05-18T11:26:30.821Z,1591.88
2019-05-18T11:27:29.803Z,1608.75
2019-05-18T11:28:29.910Z,1659.38
2019-05-18T11:29:30.712Z,1620.00
2019-05-18T11:30:30.462Z,1653.75
2019-05-18T11:31:29.768Z,1676.25
2019-05-18T11:32:30.197Z,1670.62
2019-05-18T11:33:31.697Z,1653.75
2019-05-18T11:34:30.458Z,1591.88
2019-05-18T11:35:32.572Z,1530.00
2019-05-18T11:36:32.754Z,1485.00
2019-05-18T11:37:30.970Z,1473.75
2019-05-18T11:38:31.929Z,1445.62
2019-05-18T11:39:31.036Z,1524.38
2019-05-18T11:40:29.655Z,1586.25
2019-05-18T11:41:29.629Z,1597.50
2019-05-18T11:42:30.542Z,1614.38
2019-05-18T11:43:31.487Z,1563.75
2019-05-18T11:44:30.755Z,1507.50
2019-05-18T11:45:31.552Z,1451.25
2019-05-18T11:46:32.651Z,1395.00
2019-05-18T11:47:32.683Z,1366.88
2019-05-18T11:48:32.454Z,1389.38
2019-05-18T11:49:30.611Z,1490.62
2019-05-18T11:50:31.870Z,1586.25
2019-05-18T11:51:31.192Z,1552.50
2019-05-18T11:52:31.888Z,1558.12
2019-05-18T11:53:29.514Z,1591.88
2019-05-18T11:54:29.533Z,1575.00
2019-05-18T11:55:29.502Z,1563.75
2019-05-18T11:56:29.487Z,1558.12
2019-05-18T11:57:31.392Z,1479.38
2019-05-18T11:58:29.495Z,1524.38
2019-05-18T11:59:32.086Z,1608.75
2019-05-18T12:00:30.516Z,1648.12
2019-05-18T12:01:30.423Z,1597.50
2019-05-18T12:02:29.414Z,1608.75
2019-05-18T12:03:29.402Z,1586.25
2019-05-18T12:04:29.403Z,1535.62
2019-05-18T12:05:30.848Z,1552.50
2019-05-18T12:06:31.060Z,1648.12
2019-05-18T12:07:29.392Z,1563.75
2019-05-18T12:08:30.295Z,1485.00
2019-05-18T12:09:29.378Z,1608.75
2019-05-18T12:10:32.322Z,1642.50
2019-05-18T12:11:30.994Z,1608.75
2019-05-18T12:12:29.608Z,1642.50
2019-05-18T12:13:30.032Z,1625.62
2019-05-18T12:14:29.478Z,1591.88
2019-05-18T12:15:30.527Z,1625.62
2019-05-18T12:16:29.294Z,1614.38
2019-05-18T12:17:29.303Z,1608.75
2019-05-18T12:18:29.715Z,1591.88
2019-05-18T12:19:30.595Z,613.12
2019-05-18T12:20:31.064Z,320.62
2019-05-18T12:21:30.131Z,675.00
2019-05-18T12:22:30.135Z,1468.12
2019-05-18T12:23:29.209Z,1575.00
2019-05-18T12:24:29.235Z,1462.50
2019-05-18T12:25:31.159Z,1096.88
2019-05-18T12:26:29.988Z,489.38
2019-05-18T12:27:29.195Z,360.00
2019-05-18T12:28:31.502Z,714.38
2019-05-18T12:29:30.486Z,1186.88
2019-05-18T12:30:29.646Z,1625.62
2019-05-18T12:31:29.978Z,1620.00
2019-05-18T12:32:29.708Z,1271.25
2019-05-18T12:33:29.797Z,1496.25
2019-05-18T12:34:29.360Z,1485.00
2019-05-18T12:35:29.572Z,1428.75
2019-05-18T12:36:29.787Z,1552.50
2019-05-18T12:37:29.378Z,1659.38
2019-05-18T12:38:29.710Z,1642.50
2019-05-18T12:39:29.908Z,1614.38
2019-05-18T12:40:29.049Z,1400.62
2019-05-18T12:41:29.100Z,461.25
2019-05-18T12:42:29.710Z,253.12
2019-05-18T12:43:30.728Z,247.50
2019-05-18T12:44:29.901Z,247.50
2019-05-18T12:45:28.988Z,253.12
2019-05-18T12:46:30.267Z,275.62
2019-05-18T12:47:28.978Z,298.12
2019-05-18T12:48:29.503Z,303.75